Stacja Pogody
Warszawa Praga-Północ

Szerokość 52°15'43"N Długość 21°01'22"E Wysokość 110m n.p.m.


110 dzień roku.   Do końca pozostalo 255 dni.   Od wczoraj przybyło 4 min. i 7 sek. dnia.
Wschód Słońca 05:28 Górowanie Słońca 12:34 Zachód Słońca 19:41 byk
Data juliańska 2458229.640 Odległość Słońca 150268544 km Średn. kątowa Słońca 0,318°
Wschód Księżyca 08:33 Zachód Księżyca 00:00 Wiek Księżyca 4 dni Moon
Widoczność Księżyca 20,40% Odległość Księżyca 365222 km Średn. kątowa Księżyca 0,327°
Dzień krótszy od najdłuższego o: 02:35 Długość dnia 14:12 Imieniny Czesława, Agnieszki, Mariana



  Aktualizacja: 20-04-2018 03:20:37
TEMPERATURA
Aktualnie: 9.8°C ↓
Temperatura odczuwalna:8.6°C
Punkt rosy4.6°C
WIATR
Średnia prędkość: 0.0km/h →
Prędkość w podmuchach:1.1km/h
Przepływ w ciągu doby:152.7km
Kierunek wiatru:225°
CIŚNIENIE
Względne:1028.3hPa
Trend ciśnienia:stabilne
WILGOTNOŚĆ
Wilgotność względna: 70% ↑
Podstawa chmur2461m
DESZCZ
W ostatniej godzinie: 0.0mm
Dzisiaj:0.0mm
W tym miesiącu:11.1mm
METAR
EPWA 200100Z 01006KT CAVOK 10/05 Q1028 NOSIG
Ostrzeżenia burzowe
Prognoza 12-to godzinna (prawdopodobieństwo 75%):   Stabilna, dobra pogoda prognoza





a  a